Opasatika, Canada
Current Conditions -  °F | °C
As of 8:00 AM on Thursday 30 Oct 2014 (Local Time) from CYYU Reporting Station
Broken Clouds Broken Clouds  
Wind Chill: -3°   Ceiling: 2000
Heat Index: -3°   Visibility: 15mi
Dew Point: -5°   Wind: 3mph
Humidity: 86%   Direction: 290°WNW
Pressure: 30.03"   Gusts: NA
Location:  49.53°N, 82.87°W
Report Text: CYYU 301200Z 29003KT 15SM BKN020 BKN100 BKN200 M03/M05 A3003 RMK SC5AC2CC1 CC TR FROIN SLP181
Loading
Personal Weather Stations






























Interactive Weather Map
Tropical Storm Tracking
New forecast layout! Learn more

10-Day Weather Forecast

Advertisements
Track Severe Weather on mobile